sensor_id;sensor_type;location;lat;lon;timestamp;pressure;altitude;pressure_sealevel;temperature;humidity
6028;BME280;3042;43.194;27.646;2023-03-19T00:04:23;102239.31;;;15.86;100.00
6028;BME280;3042;43.194;27.646;2023-03-19T00:07:00;102229.31;;;15.95;100.00
6028;BME280;3042;43.194;27.646;2023-03-19T00:12:39;102224.88;;;15.93;100.00
6028;BME280;3042;43.194;27.646;2023-03-19T00:15:07;102251.19;;;15.99;100.00
6028;BME280;3042;43.194;27.646;2023-03-19T00:17:43;102201.94;;;15.86;100.00
6028;BME280;3042;43.194;27.646;2023-03-19T00:20:31;102199.59;;;15.92;100.00
6028;BME280;3042;43.194;27.646;2023-03-19T00:23:04;102173.81;;;15.43;100.00
6028;BME280;3042;43.194;27.646;2023-03-19T00:25:36;102185.50;;;15.69;100.00
6028;BME280;3042;43.194;27.646;2023-03-19T00:28:06;102185.97;;;15.06;100.00
6028;BME280;3042;43.194;27.646;2023-03-19T00:30:35;102209.84;;;14.81;100.00
6028;BME280;3042;43.194;27.646;2023-03-19T00:33:06;102105.31;;;14.54;100.00
6028;BME280;3042;43.194;27.646;2023-03-19T00:35:50;102230.38;;;15.63;100.00
6028;BME280;3042;43.194;27.646;2023-03-19T00:38:41;102208.97;;;15.15;100.00
6028;BME280;3042;43.194;27.646;2023-03-19T00:41:33;102225.91;;;15.43;100.00
6028;BME280;3042;43.194;27.646;2023-03-19T00:44:11;102235.81;;;15.50;100.00
6028;BME280;3042;43.194;27.646;2023-03-19T00:46:47;102234.41;;;15.74;100.00
6028;BME280;3042;43.194;27.646;2023-03-19T00:52:59;102233.06;;;15.82;100.00
6028;BME280;3042;43.194;27.646;2023-03-19T01:05:40;102224.88;;;15.93;100.00
6028;BME280;3042;43.194;27.646;2023-03-19T01:08:33;101985.88;;;14.59;100.00
6028;BME280;3042;43.194;27.646;2023-03-19T01:12:33;101808.50;;;13.75;100.00
6028;BME280;3042;43.194;27.646;2023-03-19T01:15:01;102232.66;;;15.73;100.00
6028;BME280;3042;43.194;27.646;2023-03-19T01:17:34;102122.66;;;15.25;100.00
6028;BME280;3042;43.194;27.646;2023-03-19T01:20:21;102019.75;;;14.78;100.00
6028;BME280;3042;43.194;27.646;2023-03-19T01:23:04;102178.72;;;15.54;100.00
6028;BME280;3042;43.194;27.646;2023-03-19T01:25:48;102207.28;;;15.89;100.00
6028;BME280;3042;43.194;27.646;2023-03-19T01:38:38;101393.97;;;10.73;100.00
6028;BME280;3042;43.194;27.646;2023-03-19T01:41:21;102224.50;;;15.67;100.00
6028;BME280;3042;43.194;27.646;2023-03-19T01:43:48;102203.31;;;15.41;100.00
6028;BME280;3042;43.194;27.646;2023-03-19T01:46:27;102236.69;;;15.68;100.00
6028;BME280;3042;43.194;27.646;2023-03-19T01:49:02;102146.97;;;15.26;100.00
6028;BME280;3042;43.194;27.646;2023-03-19T01:51:37;102233.19;;;15.68;100.00
6028;BME280;3042;43.194;27.646;2023-03-19T01:54:17;102199.22;;;15.11;100.00
6028;BME280;3042;43.194;27.646;2023-03-19T01:57:12;102246.94;;;15.46;100.00
6028;BME280;3042;43.194;27.646;2023-03-19T01:59:55;101841.00;;;13.16;100.00
6028;BME280;3042;43.194;27.646;2023-03-19T02:02:42;102253.69;;;15.42;100.00
6028;BME280;3042;43.194;27.646;2023-03-19T02:05:22;102141.91;;;14.93;100.00
6028;BME280;3042;43.194;27.646;2023-03-19T02:07:59;102245.06;;;15.43;100.00
6028;BME280;3042;43.194;27.646;2023-03-19T02:10:40;102256.72;;;15.33;100.00
6028;BME280;3042;43.194;27.646;2023-03-19T02:13:20;102195.03;;;15.32;100.00
6028;BME280;3042;43.194;27.646;2023-03-19T02:15:51;102250.78;;;15.54;100.00
6028;BME280;3042;43.194;27.646;2023-03-19T02:18:24;102078.63;;;14.58;100.00
6028;BME280;3042;43.194;27.646;2023-03-19T02:21:02;102191.84;;;15.20;100.00
6028;BME280;3042;43.194;27.646;2023-03-19T02:23:48;102254.28;;;15.36;100.00
6028;BME280;3042;43.194;27.646;2023-03-19T02:26:26;102251.53;;;15.69;100.00
6028;BME280;3042;43.194;27.646;2023-03-19T02:29:12;102238.13;;;15.44;100.00
6028;BME280;3042;43.194;27.646;2023-03-19T02:31:44;102200.19;;;15.13;100.00
6028;BME280;3042;43.194;27.646;2023-03-19T02:34:35;102238.19;;;15.63;100.00
6028;BME280;3042;43.194;27.646;2023-03-19T02:37:13;102267.16;;;15.69;100.00
6028;BME280;3042;43.194;27.646;2023-03-19T02:39:56;102259.00;;;15.79;100.00
6028;BME280;3042;43.194;27.646;2023-03-19T02:42:54;102254.50;;;15.95;100.00
6028;BME280;3042;43.194;27.646;2023-03-19T02:45:34;102257.66;;;15.88;100.00
6028;BME280;3042;43.194;27.646;2023-03-19T02:48:10;102262.69;;;15.85;100.00
6028;BME280;3042;43.194;27.646;2023-03-19T02:50:50;102217.22;;;15.60;100.00
6028;BME280;3042;43.194;27.646;2023-03-19T02:53:23;102222.38;;;15.40;100.00
6028;BME280;3042;43.194;27.646;2023-03-19T02:55:56;102255.13;;;15.71;100.00
6028;BME280;3042;43.194;27.646;2023-03-19T02:58:34;102270.28;;;15.62;100.00
6028;BME280;3042;43.194;27.646;2023-03-19T03:01:06;102205.66;;;15.19;100.00
6028;BME280;3042;43.194;27.646;2023-03-19T03:03:38;102229.28;;;15.22;100.00
6028;BME280;3042;43.194;27.646;2023-03-19T03:06:25;102027.88;;;14.32;100.00
6028;BME280;3042;43.194;27.646;2023-03-19T03:09:00;102265.03;;;15.78;100.00
6028;BME280;3042;43.194;27.646;2023-03-19T03:11:36;102235.31;;;15.57;100.00
6028;BME280;3042;43.194;27.646;2023-03-19T03:14:17;102163.56;;;15.28;100.00
6028;BME280;3042;43.194;27.646;2023-03-19T03:16:53;102181.72;;;15.26;100.00
6028;BME280;3042;43.194;27.646;2023-03-19T03:19:37;102191.56;;;15.32;100.00
6028;BME280;3042;43.194;27.646;2023-03-19T03:22:14;102271.44;;;15.85;100.00
6028;BME280;3042;43.194;27.646;2023-03-19T03:24:48;102278.72;;;15.74;100.00
6028;BME280;3042;43.194;27.646;2023-03-19T03:27:36;102275.19;;;15.56;100.00
6028;BME280;3042;43.194;27.646;2023-03-19T03:33:41;102181.50;;;14.69;100.00
6028;BME280;3042;43.194;27.646;2023-03-19T03:36:31;102191.69;;;14.48;100.00
6028;BME280;3042;43.194;27.646;2023-03-19T03:41:56;102271.59;;;15.18;100.00
6028;BME280;3042;43.194;27.646;2023-03-19T03:42:33;102299.59;;;15.22;100.00
6028;BME280;3042;43.194;27.646;2023-03-19T03:45:09;102294.09;;;14.99;100.00
6028;BME280;3042;43.194;27.646;2023-03-19T03:47:41;102182.66;;;14.42;100.00
6028;BME280;3042;43.194;27.646;2023-03-19T03:50:20;102297.84;;;15.57;100.00
6028;BME280;3042;43.194;27.646;2023-03-19T03:53:14;102252.16;;;14.77;100.00
6028;BME280;3042;43.194;27.646;2023-03-19T03:55:57;102327.56;;;14.75;100.00
6028;BME280;3042;43.194;27.646;2023-03-19T03:58:44;102314.41;;;15.07;100.00
6028;BME280;3042;43.194;27.646;2023-03-19T04:01:30;102314.56;;;15.10;100.00
6028;BME280;3042;43.194;27.646;2023-03-19T04:04:08;102316.66;;;15.17;100.00
6028;BME280;3042;43.194;27.646;2023-03-19T04:06:47;102317.13;;;15.26;100.00
6028;BME280;3042;43.194;27.646;2023-03-19T04:09:27;102307.50;;;15.41;100.00
6028;BME280;3042;43.194;27.646;2023-03-19T04:12:08;102311.13;;;15.45;100.00
6028;BME280;3042;43.194;27.646;2023-03-19T04:14:49;102197.25;;;14.54;100.00
6028;BME280;3042;43.194;27.646;2023-03-19T04:17:31;102310.00;;;15.40;100.00
6028;BME280;3042;43.194;27.646;2023-03-19T04:20:03;102248.81;;;15.14;100.00
6028;BME280;3042;43.194;27.646;2023-03-19T04:22:43;102171.94;;;14.86;100.00
6028;BME280;3042;43.194;27.646;2023-03-19T04:29:31;102052.09;;;13.80;100.00
6028;BME280;3042;43.194;27.646;2023-03-19T04:32:15;102044.63;;;14.03;100.00
6028;BME280;3042;43.194;27.646;2023-03-19T04:34:45;102323.97;;;15.40;100.00
6028;BME280;3042;43.194;27.646;2023-03-19T04:37:15;102319.81;;;15.62;100.00
6028;BME280;3042;43.194;27.646;2023-03-19T04:39:47;102266.28;;;15.51;100.00
6028;BME280;3042;43.194;27.646;2023-03-19T04:43:47;102050.78;;;14.39;100.00
6028;BME280;3042;43.194;27.646;2023-03-19T04:52:27;102318.41;;;15.87;100.00
6028;BME280;3042;43.194;27.646;2023-03-19T04:58:22;102318.72;;;15.93;100.00
6028;BME280;3042;43.194;27.646;2023-03-19T05:01:02;102331.81;;;15.76;100.00
6028;BME280;3042;43.194;27.646;2023-03-19T05:03:29;102376.31;;;15.63;100.00
6028;BME280;3042;43.194;27.646;2023-03-19T05:05:56;102317.00;;;15.75;100.00
6028;BME280;3042;43.194;27.646;2023-03-19T05:08:23;102338.66;;;15.40;100.00
6028;BME280;3042;43.194;27.646;2023-03-19T05:10:51;102212.47;;;14.81;100.00
6028;BME280;3042;43.194;27.646;2023-03-19T05:13:19;102210.38;;;14.74;100.00
6028;BME280;3042;43.194;27.646;2023-03-19T05:15:46;102332.66;;;15.59;100.00
6028;BME280;3042;43.194;27.646;2023-03-19T05:18:13;102326.00;;;15.64;100.00
6028;BME280;3042;43.194;27.646;2023-03-19T05:20:41;102328.69;;;15.83;100.00
6028;BME280;3042;43.194;27.646;2023-03-19T05:23:09;102322.28;;;15.95;100.00
6028;BME280;3042;43.194;27.646;2023-03-19T05:25:36;102322.72;;;16.04;100.00
6028;BME280;3042;43.194;27.646;2023-03-19T05:28:04;102272.53;;;15.72;100.00
6028;BME280;3042;43.194;27.646;2023-03-19T05:30:33;102307.25;;;15.71;100.00
6028;BME280;3042;43.194;27.646;2023-03-19T05:33:00;102250.94;;;15.57;100.00
6028;BME280;3042;43.194;27.646;2023-03-19T05:35:28;102326.03;;;16.19;100.00
6028;BME280;3042;43.194;27.646;2023-03-19T05:37:56;102331.38;;;16.03;100.00
6028;BME280;3042;43.194;27.646;2023-03-19T05:40:23;102338.22;;;16.01;100.00
6028;BME280;3042;43.194;27.646;2023-03-19T05:42:50;102332.41;;;15.89;100.00
6028;BME280;3042;43.194;27.646;2023-03-19T05:45:18;102240.19;;;15.33;100.00
6028;BME280;3042;43.194;27.646;2023-03-19T05:47:47;102336.44;;;15.82;100.00
6028;BME280;3042;43.194;27.646;2023-03-19T05:50:15;102341.81;;;15.85;100.00
6028;BME280;3042;43.194;27.646;2023-03-19T05:52:42;102279.22;;;15.67;100.00
6028;BME280;3042;43.194;27.646;2023-03-19T05:55:10;102240.00;;;15.46;100.00
6028;BME280;3042;43.194;27.646;2023-03-19T05:57:37;102318.09;;;16.16;100.00
6028;BME280;3042;43.194;27.646;2023-03-19T06:00:05;102316.44;;;16.18;100.00
6028;BME280;3042;43.194;27.646;2023-03-19T06:02:33;102251.78;;;16.11;100.00
6028;BME280;3042;43.194;27.646;2023-03-19T06:05:02;102165.63;;;15.53;100.00
6028;BME280;3042;43.194;27.646;2023-03-19T06:07:29;102305.22;;;16.39;100.00
6028;BME280;3042;43.194;27.646;2023-03-19T06:09:56;102181.69;;;15.62;100.00
6028;BME280;3042;43.194;27.646;2023-03-19T06:12:23;102307.69;;;16.36;100.00
6028;BME280;3042;43.194;27.646;2023-03-19T06:14:50;102125.16;;;15.41;100.00
6028;BME280;3042;43.194;27.646;2023-03-19T06:17:17;102295.69;;;16.39;100.00
6028;BME280;3042;43.194;27.646;2023-03-19T06:19:44;102303.78;;;16.65;100.00
6028;BME280;3042;43.194;27.646;2023-03-19T06:22:12;102131.50;;;15.11;100.00
6028;BME280;3042;43.194;27.646;2023-03-19T06:24:39;102272.91;;;15.98;100.00
6028;BME280;3042;43.194;27.646;2023-03-19T06:27:06;102317.44;;;16.40;100.00
6028;BME280;3042;43.194;27.646;2023-03-19T06:29:34;102324.63;;;16.45;100.00
6028;BME280;3042;43.194;27.646;2023-03-19T06:32:01;102344.94;;;15.96;100.00
6028;BME280;3042;43.194;27.646;2023-03-19T06:34:28;102166.91;;;14.89;100.00
6028;BME280;3042;43.194;27.646;2023-03-19T06:36:55;102325.06;;;16.17;100.00
6028;BME280;3042;43.194;27.646;2023-03-19T06:39:23;102326.69;;;16.33;100.00
6028;BME280;3042;43.194;27.646;2023-03-19T06:41:51;102342.38;;;16.53;100.00
6028;BME280;3042;43.194;27.646;2023-03-19T06:44:18;102194.66;;;15.78;100.00
6028;BME280;3042;43.194;27.646;2023-03-19T06:46:45;102318.41;;;16.61;100.00
6028;BME280;3042;43.194;27.646;2023-03-19T06:49:12;102313.88;;;16.77;100.00
6028;BME280;3042;43.194;27.646;2023-03-19T06:51:39;102012.13;;;15.01;100.00
6028;BME280;3042;43.194;27.646;2023-03-19T06:54:06;102252.88;;;16.36;100.00
6028;BME280;3042;43.194;27.646;2023-03-19T06:56:35;102314.34;;;16.86;100.00
6028;BME280;3042;43.194;27.646;2023-03-19T06:59:02;102320.22;;;17.01;100.00
6028;BME280;3042;43.194;27.646;2023-03-19T07:01:35;102313.22;;;17.00;100.00
6028;BME280;3042;43.194;27.646;2023-03-19T07:04:02;102053.78;;;15.01;100.00
6028;BME280;3042;43.194;27.646;2023-03-19T07:06:29;102329.56;;;16.77;100.00
6028;BME280;3042;43.194;27.646;2023-03-19T07:08:58;102324.34;;;16.96;100.00
6028;BME280;3042;43.194;27.646;2023-03-19T07:11:25;102246.16;;;16.41;100.00
6028;BME280;3042;43.194;27.646;2023-03-19T07:13:53;102233.38;;;16.66;100.00
6028;BME280;3042;43.194;27.646;2023-03-19T07:16:20;102329.75;;;17.01;100.00
6028;BME280;3042;43.194;27.646;2023-03-19T07:18:47;102324.09;;;17.11;100.00
6028;BME280;3042;43.194;27.646;2023-03-19T07:21:14;102341.94;;;16.81;100.00
6028;BME280;3042;43.194;27.646;2023-03-19T07:23:41;102259.75;;;16.34;100.00
6028;BME280;3042;43.194;27.646;2023-03-19T07:26:08;102347.63;;;16.92;100.00
6028;BME280;3042;43.194;27.646;2023-03-19T07:28:36;102347.56;;;16.90;100.00
6028;BME280;3042;43.194;27.646;2023-03-19T07:31:04;102308.81;;;16.60;100.00
6028;BME280;3042;43.194;27.646;2023-03-19T07:33:32;102328.84;;;16.61;100.00
6028;BME280;3042;43.194;27.646;2023-03-19T07:35:59;102351.69;;;16.85;100.00
6028;BME280;3042;43.194;27.646;2023-03-19T07:38:26;102130.81;;;15.51;100.00
6028;BME280;3042;43.194;27.646;2023-03-19T07:40:53;102331.28;;;16.96;100.00
6028;BME280;3042;43.194;27.646;2023-03-19T07:43:20;102076.31;;;15.55;100.00
6028;BME280;3042;43.194;27.646;2023-03-19T07:45:47;102348.00;;;16.80;100.00
6028;BME280;3042;43.194;27.646;2023-03-19T07:48:15;102359.63;;;16.49;100.00
6028;BME280;3042;43.194;27.646;2023-03-19T07:50:43;102355.06;;;16.64;100.00
6028;BME280;3042;43.194;27.646;2023-03-19T07:53:10;102328.31;;;17.07;100.00
6028;BME280;3042;43.194;27.646;2023-03-19T07:55:38;102249.47;;;16.56;100.00
6028;BME280;3042;43.194;27.646;2023-03-19T07:58:05;102282.25;;;17.09;100.00
6028;BME280;3042;43.194;27.646;2023-03-19T08:00:32;102315.47;;;17.54;100.00
6028;BME280;3042;43.194;27.646;2023-03-19T08:02:59;102236.41;;;17.16;100.00
6028;BME280;3042;43.194;27.646;2023-03-19T08:05:28;102149.69;;;16.83;100.00
6028;BME280;3042;43.194;27.646;2023-03-19T08:07:55;102191.28;;;16.99;100.00
6028;BME280;3042;43.194;27.646;2023-03-19T08:10:22;102256.91;;;17.49;100.00
6028;BME280;3042;43.194;27.646;2023-03-19T08:12:49;102317.72;;;17.87;100.00
6028;BME280;3042;43.194;27.646;2023-03-19T08:15:17;102300.41;;;18.13;100.00
6028;BME280;3042;43.194;27.646;2023-03-19T08:17:44;102306.09;;;18.25;100.00
6028;BME280;3042;43.194;27.646;2023-03-19T08:20:12;102160.94;;;17.69;100.00
6028;BME280;3042;43.194;27.646;2023-03-19T08:22:42;102296.56;;;18.74;100.00
6028;BME280;3042;43.194;27.646;2023-03-19T08:25:09;102305.59;;;18.58;100.00
6028;BME280;3042;43.194;27.646;2023-03-19T08:27:37;102304.03;;;18.63;100.00
6028;BME280;3042;43.194;27.646;2023-03-19T08:30:06;102299.03;;;18.69;100.00
6028;BME280;3042;43.194;27.646;2023-03-19T08:32:34;102299.63;;;18.62;100.00
6028;BME280;3042;43.194;27.646;2023-03-19T08:35:02;102298.91;;;18.66;100.00
6028;BME280;3042;43.194;27.646;2023-03-19T08:37:29;101902.03;;;16.47;100.00
6028;BME280;3042;43.194;27.646;2023-03-19T08:39:57;102282.75;;;19.02;100.00
6028;BME280;3042;43.194;27.646;2023-03-19T08:42:25;102280.94;;;19.27;100.00
6028;BME280;3042;43.194;27.646;2023-03-19T08:44:52;101779.22;;;16.18;100.00
6028;BME280;3042;43.194;27.646;2023-03-19T08:47:19;102062.72;;;17.76;100.00
6028;BME280;3042;43.194;27.646;2023-03-19T08:49:49;102044.28;;;16.79;100.00
6028;BME280;3042;43.194;27.646;2023-03-19T08:52:16;102332.34;;;18.04;100.00
6028;BME280;3042;43.194;27.646;2023-03-19T08:54:44;102336.31;;;17.95;100.00
6028;BME280;3042;43.194;27.646;2023-03-19T08:57:12;102346.94;;;17.36;100.00
6028;BME280;3042;43.194;27.646;2023-03-19T08:59:40;102354.34;;;17.06;100.00
6028;BME280;3042;43.194;27.646;2023-03-19T09:02:08;102018.50;;;15.45;100.00
6028;BME280;3042;43.194;27.646;2023-03-19T09:04:36;102205.53;;;15.88;100.00
6028;BME280;3042;43.194;27.646;2023-03-19T09:07:05;102173.38;;;16.47;100.00
6028;BME280;3042;43.194;27.646;2023-03-19T09:09:32;102334.50;;;17.09;100.00
6028;BME280;3042;43.194;27.646;2023-03-19T09:11:59;101839.44;;;14.24;100.00
6028;BME280;3042;43.194;27.646;2023-03-19T09:14:44;102345.34;;;16.99;100.00
6028;BME280;3042;43.194;27.646;2023-03-19T09:17:20;102094.41;;;15.90;100.00
6028;BME280;3042;43.194;27.646;2023-03-19T09:19:47;101895.53;;;15.32;100.00
6028;BME280;3042;43.194;27.646;2023-03-19T09:22:15;102294.59;;;17.56;100.00
6028;BME280;3042;43.194;27.646;2023-03-19T09:24:42;102289.59;;;18.26;100.00
6028;BME280;3042;43.194;27.646;2023-03-19T09:27:09;102238.84;;;18.47;100.00
6028;BME280;3042;43.194;27.646;2023-03-19T09:29:38;102277.28;;;18.72;100.00
6028;BME280;3042;43.194;27.646;2023-03-19T09:32:05;102359.44;;;18.06;100.00
6028;BME280;3042;43.194;27.646;2023-03-19T09:34:32;101939.50;;;15.65;100.00
6028;BME280;3042;43.194;27.646;2023-03-19T09:37:00;102032.56;;;16.28;100.00
6028;BME280;3042;43.194;27.646;2023-03-19T09:39:27;102212.69;;;17.99;100.00
6028;BME280;3042;43.194;27.646;2023-03-19T09:42:02;102266.38;;;18.84;100.00
6028;BME280;3042;43.194;27.646;2023-03-19T09:44:33;102263.22;;;18.94;100.00
6028;BME280;3042;43.194;27.646;2023-03-19T09:47:15;102027.22;;;17.34;100.00
6028;BME280;3042;43.194;27.646;2023-03-19T09:49:52;102269.72;;;18.31;100.00
6028;BME280;3042;43.194;27.646;2023-03-19T09:52:30;102187.44;;;17.33;100.00
6028;BME280;3042;43.194;27.646;2023-03-19T09:55:04;102290.31;;;18.22;100.00
6028;BME280;3042;43.194;27.646;2023-03-19T09:57:37;102161.78;;;17.68;100.00
6028;BME280;3042;43.194;27.646;2023-03-19T10:00:18;102205.97;;;17.83;100.00
6028;BME280;3042;43.194;27.646;2023-03-19T10:02:51;102005.53;;;16.25;100.00
6028;BME280;3042;43.194;27.646;2023-03-19T10:05:26;102049.38;;;16.78;100.00
6028;BME280;3042;43.194;27.646;2023-03-19T10:08:18;102246.22;;;18.57;100.00
6028;BME280;3042;43.194;27.646;2023-03-19T10:10:52;102163.94;;;18.76;100.00
6028;BME280;3042;43.194;27.646;2023-03-19T10:13:33;102045.44;;;18.56;100.00
6028;BME280;3042;43.194;27.646;2023-03-19T10:16:05;102208.56;;;19.86;100.00
6028;BME280;3042;43.194;27.646;2023-03-19T10:18:43;102216.31;;;19.81;100.00
6028;BME280;3042;43.194;27.646;2023-03-19T10:21:17;102230.25;;;19.53;100.00
6028;BME280;3042;43.194;27.646;2023-03-19T10:23:48;102133.34;;;19.28;100.00
6028;BME280;3042;43.194;27.646;2023-03-19T10:26:18;102009.13;;;18.94;100.00
6028;BME280;3042;43.194;27.646;2023-03-19T10:28:54;102196.28;;;20.15;100.00
6028;BME280;3042;43.194;27.646;2023-03-19T10:31:27;102257.16;;;19.21;100.00
6028;BME280;3042;43.194;27.646;2023-03-19T10:34:09;102249.56;;;19.28;100.00
6028;BME280;3042;43.194;27.646;2023-03-19T10:36:39;101797.84;;;16.76;100.00
6028;BME280;3042;43.194;27.646;2023-03-19T10:39:06;102216.31;;;19.81;100.00
6028;BME280;3042;43.194;27.646;2023-03-19T10:41:48;102171.50;;;19.47;100.00
6028;BME280;3042;43.194;27.646;2023-03-19T10:44:26;102207.19;;;19.99;100.00
6028;BME280;3042;43.194;27.646;2023-03-19T10:46:56;102192.78;;;19.85;100.00
6028;BME280;3042;43.194;27.646;2023-03-19T10:49:25;102096.75;;;18.00;100.00
6028;BME280;3042;43.194;27.646;2023-03-19T10:51:55;102213.16;;;19.37;100.00
6028;BME280;3042;43.194;27.646;2023-03-19T10:54:24;102178.03;;;19.05;100.00
6028;BME280;3042;43.194;27.646;2023-03-19T10:56:54;102192.31;;;19.42;100.00
6028;BME280;3042;43.194;27.646;2023-03-19T10:59:24;102105.81;;;19.42;100.00
6028;BME280;3042;43.194;27.646;2023-03-19T11:01:56;102150.09;;;19.90;100.00
6028;BME280;3042;43.194;27.646;2023-03-19T11:04:25;102079.78;;;19.19;100.00
6028;BME280;3042;43.194;27.646;2023-03-19T11:06:55;102164.16;;;20.24;100.00
6028;BME280;3042;43.194;27.646;2023-03-19T11:09:31;102181.28;;;19.52;100.00
6028;BME280;3042;43.194;27.646;2023-03-19T11:12:06;102208.13;;;19.44;100.00
6028;BME280;3042;43.194;27.646;2023-03-19T11:14:35;102196.63;;;19.40;100.00
6028;BME280;3042;43.194;27.646;2023-03-19T11:17:05;102152.06;;;19.69;100.00
6028;BME280;3042;43.194;27.646;2023-03-19T11:19:49;102113.19;;;19.84;100.00
6028;BME280;3042;43.194;27.646;2023-03-19T11:22:21;102070.03;;;19.44;100.00
6028;BME280;3042;43.194;27.646;2023-03-19T11:24:51;102141.84;;;20.08;99.15
6028;BME280;3042;43.194;27.646;2023-03-19T11:27:26;102088.91;;;20.23;100.00
6028;BME280;3042;43.194;27.646;2023-03-19T11:29:54;102086.91;;;20.14;99.32
6028;BME280;3042;43.194;27.646;2023-03-19T11:32:57;102162.44;;;19.66;100.00
6028;BME280;3042;43.194;27.646;2023-03-19T11:35:29;102167.81;;;19.69;100.00
6028;BME280;3042;43.194;27.646;2023-03-19T11:38:00;102145.13;;;19.13;100.00
6028;BME280;3042;43.194;27.646;2023-03-19T11:40:34;102184.38;;;19.12;100.00
6028;BME280;3042;43.194;27.646;2023-03-19T11:46:25;102175.97;;;18.95;100.00
6028;BME280;3042;43.194;27.646;2023-03-19T11:52:12;102144.84;;;19.61;100.00
6028;BME280;3042;43.194;27.646;2023-03-19T11:54:54;102075.97;;;19.37;100.00
6028;BME280;3042;43.194;27.646;2023-03-19T11:57:36;102156.19;;;19.05;100.00
6028;BME280;3042;43.194;27.646;2023-03-19T12:00:18;102159.22;;;18.90;100.00
6028;BME280;3042;43.194;27.646;2023-03-19T12:05:54;102152.38;;;18.95;100.00
6028;BME280;3042;43.194;27.646;2023-03-19T12:08:32;102138.56;;;18.73;100.00
6028;BME280;3042;43.194;27.646;2023-03-19T12:11:12;102149.78;;;18.95;100.00
6028;BME280;3042;43.194;27.646;2023-03-19T12:14:08;102149.56;;;18.89;100.00
6028;BME280;3042;43.194;27.646;2023-03-19T12:16:58;102149.56;;;18.89;100.00
6028;BME280;3042;43.194;27.646;2023-03-19T12:19:45;102166.00;;;18.59;100.00
6028;BME280;3042;43.194;27.646;2023-03-19T12:22:24;102156.56;;;18.64;100.00
6028;BME280;3042;43.194;27.646;2023-03-19T12:25:15;102154.66;;;18.34;100.00
6028;BME280;3042;43.194;27.646;2023-03-19T12:27:50;102159.38;;;18.19;100.00
6028;BME280;3042;43.194;27.646;2023-03-19T12:30:26;101989.06;;;17.39;100.00
6028;BME280;3042;43.194;27.646;2023-03-19T12:33:10;102130.81;;;18.76;100.00
6028;BME280;3042;43.194;27.646;2023-03-19T12:35:45;102136.25;;;18.57;100.00
6028;BME280;3042;43.194;27.646;2023-03-19T12:38:18;102129.66;;;18.68;100.00
6028;BME280;3042;43.194;27.646;2023-03-19T12:40:51;101903.50;;;17.08;100.00
6028;BME280;3042;43.194;27.646;2023-03-19T12:43:26;102159.13;;;18.13;100.00
6028;BME280;3042;43.194;27.646;2023-03-19T12:45:58;102125.78;;;18.57;100.00
6028;BME280;3042;43.194;27.646;2023-03-19T12:48:30;102130.25;;;18.61;100.00
6028;BME280;3042;43.194;27.646;2023-03-19T12:51:03;102110.25;;;18.87;100.00
6028;BME280;3042;43.194;27.646;2023-03-19T12:53:36;102078.66;;;18.57;100.00
6028;BME280;3042;43.194;27.646;2023-03-19T12:56:12;102072.84;;;18.93;100.00
6028;BME280;3042;43.194;27.646;2023-03-19T12:58:49;102103.28;;;18.89;100.00
6028;BME280;3042;43.194;27.646;2023-03-19T13:01:22;102097.31;;;19.21;100.00
6028;BME280;3042;43.194;27.646;2023-03-19T13:03:55;102000.91;;;18.82;100.00
6028;BME280;3042;43.194;27.646;2023-03-19T13:06:26;101987.41;;;18.69;100.00
6028;BME280;3042;43.194;27.646;2023-03-19T13:09:00;102043.47;;;19.03;100.00
6028;BME280;3042;43.194;27.646;2023-03-19T13:11:35;102088.22;;;19.38;100.00
6028;BME280;3042;43.194;27.646;2023-03-19T13:14:10;102097.22;;;19.17;100.00
6028;BME280;3042;43.194;27.646;2023-03-19T13:16:45;102110.81;;;18.79;100.00
6028;BME280;3042;43.194;27.646;2023-03-19T13:19:19;102104.38;;;18.43;100.00
6028;BME280;3042;43.194;27.646;2023-03-19T13:21:50;102123.25;;;18.60;100.00
6028;BME280;3042;43.194;27.646;2023-03-19T13:24:22;102106.91;;;18.93;100.00
6028;BME280;3042;43.194;27.646;2023-03-19T13:26:53;102116.28;;;18.61;100.00
6028;BME280;3042;43.194;27.646;2023-03-19T13:29:23;102123.66;;;18.47;100.00
6028;BME280;3042;43.194;27.646;2023-03-19T13:31:51;102118.13;;;18.38;100.00
6028;BME280;3042;43.194;27.646;2023-03-19T13:34:22;101782.63;;;16.40;100.00
6028;BME280;3042;43.194;27.646;2023-03-19T13:36:54;102075.41;;;18.13;100.00
6028;BME280;3042;43.194;27.646;2023-03-19T13:39:28;102109.34;;;18.35;100.00
6028;BME280;3042;43.194;27.646;2023-03-19T13:42:08;102054.47;;;17.87;100.00
6028;BME280;3042;43.194;27.646;2023-03-19T13:44:40;102086.84;;;18.68;100.00
6028;BME280;3042;43.194;27.646;2023-03-19T13:50:29;102077.72;;;18.81;100.00
6028;BME280;3042;43.194;27.646;2023-03-19T13:53:21;101851.66;;;17.19;100.00
6028;BME280;3042;43.194;27.646;2023-03-19T13:55:51;101997.25;;;18.22;100.00
6028;BME280;3042;43.194;27.646;2023-03-19T13:58:23;102069.06;;;18.58;100.00
6028;BME280;3042;43.194;27.646;2023-03-19T14:01:09;101739.28;;;16.67;100.00
6028;BME280;3042;43.194;27.646;2023-03-19T14:03:39;102068.84;;;18.50;100.00
6028;BME280;3042;43.194;27.646;2023-03-19T14:06:27;101951.44;;;18.08;100.00
6028;BME280;3042;43.194;27.646;2023-03-19T14:08:57;101686.66;;;16.55;100.00
6028;BME280;3042;43.194;27.646;2023-03-19T14:11:28;102055.28;;;18.63;100.00
6028;BME280;3042;43.194;27.646;2023-03-19T14:14:01;102035.09;;;18.59;100.00
6028;BME280;3042;43.194;27.646;2023-03-19T14:16:33;102042.16;;;18.89;100.00
6028;BME280;3042;43.194;27.646;2023-03-19T14:19:01;102037.19;;;18.96;100.00
6028;BME280;3042;43.194;27.646;2023-03-19T14:21:38;102011.56;;;18.61;100.00
6028;BME280;3042;43.194;27.646;2023-03-19T14:24:29;101999.63;;;18.69;100.00
6028;BME280;3042;43.194;27.646;2023-03-19T14:27:01;102064.81;;;18.61;100.00